KFFO/FFO METAR and TAF weather

Enter ICAO airport designator
Station Type Date Time Source
KFFO METAR 2020/04/10 17:56 UTC NOAA

KFFO 101756Z 29012G19KT 10SM OVC049 06/M05 A3001 RMK AO2A SLP171 T00561048 10062 20017 50003


Station Type Date Time Source
KFFO Decoded METAR 2020/04/10 17:56 UTC NOAA

Dayton / Wright-Patterson Air Force Base, OH, United States (KFFO) 39-50N 084-03W 251M
Apr 10, 2020 - 01:56 PM EDT / 2020.04.10 1756 UTC
Wind: from the WNW (290 degrees) at 14 MPH (12 KT) gusting to 22 MPH (19 KT):0
Visibility: 10 mile(s):0
Sky conditions: overcast
Temperature: 42.1 F (5.6 C)
Dew Point: 23.4 F (-4.8 C)
Relative Humidity: 47%
Pressure (altimeter): 30.01 in. Hg (1016 hPa)
Pressure tendency: 0.01 inches (0.3 hPa) higher than three hours ago
ob: KFFO 101756Z 29012G19KT 10SM OVC049 06/M05 A3001 RMK AO2A SLP171 T00561048 10062 20017 50003
cycle: 18

Station Type Date Time Source
KFFO TAF 2020/04/10 11:03 UTC NOAA

TAF TAF KFFO 101100Z 1011/1117 30012KT 9999 SCT020 BKN040 510153 QNH2988INS
BECMG 1013/1014 31015G20KT 9999 SCT020 BKN050 510153 QNH2995INS
TEMPO 1014/1020 31015G25KT
BECMG 1100/1101 VRB06KT 9999 SCT030 BKN060 510153 QNH2996INS TX06/1021Z TN00/1111Z

Example: see airport list